sensor_id;sensor_type;location;lat;lon;timestamp;pressure;altitude;pressure_sealevel;temperature;humidity
76201;BME280;64981;52.930;9.266;2023-12-29T00:01:29;100269.50;;;10.03;66.46
76201;BME280;64981;52.930;9.266;2023-12-29T00:03:54;100273.84;;;9.88;66.72
76201;BME280;64981;52.930;9.266;2023-12-29T00:06:20;100250.13;;;9.88;66.92
76201;BME280;64981;52.930;9.266;2023-12-29T00:08:46;100252.69;;;10.04;66.78
76201;BME280;64981;52.930;9.266;2023-12-29T00:11:20;100259.28;;;10.08;66.93
76201;BME280;64981;52.930;9.266;2023-12-29T00:13:46;100245.28;;;10.00;68.31
76201;BME280;64981;52.930;9.266;2023-12-29T00:16:12;100241.50;;;10.02;68.49
76201;BME280;64981;52.930;9.266;2023-12-29T00:18:38;100230.13;;;9.94;68.97
76201;BME280;64981;52.930;9.266;2023-12-29T00:21:04;100229.00;;;9.96;69.77
76201;BME280;64981;52.930;9.266;2023-12-29T00:23:30;100246.06;;;9.61;71.57
76201;BME280;64981;52.930;9.266;2023-12-29T00:25:56;100243.72;;;9.74;71.47
76201;BME280;64981;52.930;9.266;2023-12-29T00:28:21;100247.16;;;9.75;71.85
76201;BME280;64981;52.930;9.266;2023-12-29T00:30:47;100239.84;;;9.46;72.41
76201;BME280;64981;52.930;9.266;2023-12-29T00:33:12;100241.31;;;9.33;72.51
76201;BME280;64981;52.930;9.266;2023-12-29T00:35:38;100225.84;;;9.30;72.64
76201;BME280;64981;52.930;9.266;2023-12-29T00:38:05;100241.78;;;9.44;72.56
76201;BME280;64981;52.930;9.266;2023-12-29T00:40:32;100230.78;;;9.33;72.88
76201;BME280;64981;52.930;9.266;2023-12-29T00:42:57;100229.47;;;9.20;73.22
76201;BME280;64981;52.930;9.266;2023-12-29T00:45:23;100226.31;;;9.49;72.43
76201;BME280;64981;52.930;9.266;2023-12-29T00:47:49;100214.88;;;9.73;71.25
76201;BME280;64981;52.930;9.266;2023-12-29T00:50:16;100228.44;;;9.54;72.31
76201;BME280;64981;52.930;9.266;2023-12-29T00:52:42;100216.94;;;9.39;72.62
76201;BME280;64981;52.930;9.266;2023-12-29T00:55:07;100215.09;;;9.47;71.89
76201;BME280;64981;52.930;9.266;2023-12-29T00:57:33;100217.91;;;9.46;71.96
76201;BME280;64981;52.930;9.266;2023-12-29T01:00:00;100202.44;;;9.43;71.96
76201;BME280;64981;52.930;9.266;2023-12-29T01:02:26;100216.25;;;9.45;71.80
76201;BME280;64981;52.930;9.266;2023-12-29T01:04:52;100231.59;;;9.41;71.97
76201;BME280;64981;52.930;9.266;2023-12-29T01:07:17;100216.25;;;9.45;71.86
76201;BME280;64981;52.930;9.266;2023-12-29T01:09:43;100218.59;;;9.40;72.07
76201;BME280;64981;52.930;9.266;2023-12-29T01:12:08;100225.50;;;9.41;72.00
76201;BME280;64981;52.930;9.266;2023-12-29T01:14:34;100224.97;;;9.53;71.62
76201;BME280;64981;52.930;9.266;2023-12-29T01:17:00;100208.00;;;9.56;71.96
76201;BME280;64981;52.930;9.266;2023-12-29T01:19:26;100205.72;;;9.45;72.75
76201;BME280;64981;52.930;9.266;2023-12-29T01:21:51;100206.19;;;9.56;72.96
76201;BME280;64981;52.930;9.266;2023-12-29T01:24:17;100202.94;;;9.46;73.63
76201;BME280;64981;52.930;9.266;2023-12-29T01:26:42;100210.31;;;9.51;73.77
76201;BME280;64981;52.930;9.266;2023-12-29T01:29:08;100209.00;;;9.55;73.81
76201;BME280;64981;52.930;9.266;2023-12-29T01:31:33;100204.81;;;9.76;73.25
76201;BME280;64981;52.930;9.266;2023-12-29T01:33:59;100202.06;;;9.54;73.74
76201;BME280;64981;52.930;9.266;2023-12-29T01:36:25;100207.00;;;9.57;73.67
76201;BME280;64981;52.930;9.266;2023-12-29T01:38:50;100214.78;;;9.34;74.60
76201;BME280;64981;52.930;9.266;2023-12-29T01:41:19;100210.69;;;9.32;75.53
76201;BME280;64981;52.930;9.266;2023-12-29T01:44:12;100209.00;;;9.55;75.58
76201;BME280;64981;52.930;9.266;2023-12-29T01:46:40;100195.56;;;9.17;77.84
76201;BME280;64981;52.930;9.266;2023-12-29T01:49:06;100209.34;;;9.27;77.97
76201;BME280;64981;52.930;9.266;2023-12-29T01:51:32;100206.09;;;9.09;79.31
76201;BME280;64981;52.930;9.266;2023-12-29T01:53:58;100213.00;;;9.10;79.30
76201;BME280;64981;52.930;9.266;2023-12-29T01:56:25;100202.47;;;8.78;80.60
76201;BME280;64981;52.930;9.266;2023-12-29T01:58:51;100195.41;;;8.70;81.32
76201;BME280;64981;52.930;9.266;2023-12-29T02:01:18;100196.88;;;8.89;80.41
76201;BME280;64981;52.930;9.266;2023-12-29T02:03:45;100184.38;;;8.91;80.39
76201;BME280;64981;52.930;9.266;2023-12-29T02:06:12;100183.56;;;8.99;79.53
76201;BME280;64981;52.930;9.266;2023-12-29T02:08:40;100188.66;;;8.92;80.02
76201;BME280;64981;52.930;9.266;2023-12-29T02:11:07;100189.63;;;8.83;80.52
76201;BME280;64981;52.930;9.266;2023-12-29T02:13:33;100176.31;;;8.77;80.84
76201;BME280;64981;52.930;9.266;2023-12-29T02:16:07;100163.97;;;8.77;81.22
76201;BME280;64981;52.930;9.266;2023-12-29T02:18:36;100161.16;;;8.95;80.33
76201;BME280;64981;52.930;9.266;2023-12-29T02:21:03;100153.09;;;8.80;80.86
76201;BME280;64981;52.930;9.266;2023-12-29T02:23:29;100147.31;;;8.68;81.33
76201;BME280;64981;52.930;9.266;2023-12-29T02:26:01;100145.53;;;8.85;81.15
76201;BME280;64981;52.930;9.266;2023-12-29T02:28:32;100155.72;;;8.72;81.25
76201;BME280;64981;52.930;9.266;2023-12-29T02:31:07;100147.97;;;9.03;80.51
76201;BME280;64981;52.930;9.266;2023-12-29T02:33:40;100135.31;;;8.66;81.82
76201;BME280;64981;52.930;9.266;2023-12-29T02:36:06;100131.88;;;8.90;80.94
76201;BME280;64981;52.930;9.266;2023-12-29T02:38:33;100119.34;;;8.76;81.28
76201;BME280;64981;52.930;9.266;2023-12-29T02:40:59;100124.78;;;8.66;81.76
76201;BME280;64981;52.930;9.266;2023-12-29T02:43:25;100121.31;;;8.65;81.50
76201;BME280;64981;52.930;9.266;2023-12-29T02:45:50;100110.94;;;8.56;82.04
76201;BME280;64981;52.930;9.266;2023-12-29T02:48:16;100108.16;;;8.65;81.41
76201;BME280;64981;52.930;9.266;2023-12-29T02:50:42;100118.72;;;8.74;81.52
76201;BME280;64981;52.930;9.266;2023-12-29T02:53:08;100109.66;;;8.76;81.42
76201;BME280;64981;52.930;9.266;2023-12-29T02:55:34;100103.56;;;8.67;81.35
76201;BME280;64981;52.930;9.266;2023-12-29T02:58:00;100106.19;;;8.76;81.05
76201;BME280;64981;52.930;9.266;2023-12-29T03:00:25;100099.28;;;8.83;81.02
76201;BME280;64981;52.930;9.266;2023-12-29T03:02:51;100100.44;;;8.72;82.20
76201;BME280;64981;52.930;9.266;2023-12-29T03:05:17;100086.25;;;8.81;82.27
76201;BME280;64981;52.930;9.266;2023-12-29T03:07:42;100089.41;;;8.77;81.76
76201;BME280;64981;52.930;9.266;2023-12-29T03:10:08;100081.50;;;8.60;82.75
76201;BME280;64981;52.930;9.266;2023-12-29T03:12:34;100086.28;;;8.73;82.16
76201;BME280;64981;52.930;9.266;2023-12-29T03:14:59;100067.84;;;8.65;82.59
76201;BME280;64981;52.930;9.266;2023-12-29T03:17:25;100088.06;;;8.48;83.84
76201;BME280;64981;52.930;9.266;2023-12-29T03:19:51;100066.03;;;8.57;85.14
76201;BME280;64981;52.930;9.266;2023-12-29T03:22:17;100053.19;;;8.54;85.83
76201;BME280;64981;52.930;9.266;2023-12-29T03:24:43;100054.53;;;8.58;86.24
76201;BME280;64981;52.930;9.266;2023-12-29T03:27:09;100079.03;;;8.75;85.72
76201;BME280;64981;52.930;9.266;2023-12-29T03:29:36;100062.94;;;8.70;86.04
76201;BME280;64981;52.930;9.266;2023-12-29T03:32:01;100057.31;;;8.73;84.91
76201;BME280;64981;52.930;9.266;2023-12-29T03:34:27;100063.41;;;8.57;85.10
76201;BME280;64981;52.930;9.266;2023-12-29T03:36:53;100058.97;;;8.66;83.74
76201;BME280;64981;52.930;9.266;2023-12-29T03:39:19;100062.41;;;8.75;83.48
76201;BME280;64981;52.930;9.266;2023-12-29T03:41:44;100059.44;;;8.53;84.25
76201;BME280;64981;52.930;9.266;2023-12-29T03:44:10;100064.06;;;8.76;83.33
76201;BME280;64981;52.930;9.266;2023-12-29T03:46:36;100057.31;;;8.49;83.34
76201;BME280;64981;52.930;9.266;2023-12-29T03:49:01;100062.56;;;8.57;83.66
76201;BME280;64981;52.930;9.266;2023-12-29T03:51:28;100062.75;;;8.80;82.35
76201;BME280;64981;52.930;9.266;2023-12-29T03:53:53;100059.09;;;8.89;81.46
76201;BME280;64981;52.930;9.266;2023-12-29T03:56:19;100068.69;;;8.74;81.29
76201;BME280;64981;52.930;9.266;2023-12-29T03:58:46;100069.50;;;8.58;81.75
76201;BME280;64981;52.930;9.266;2023-12-29T04:01:13;100044.66;;;8.68;81.13
76201;BME280;64981;52.930;9.266;2023-12-29T04:03:40;100061.72;;;8.97;79.66
76201;BME280;64981;52.930;9.266;2023-12-29T04:06:06;100058.94;;;8.98;79.65
76201;BME280;64981;52.930;9.266;2023-12-29T04:08:33;100068.78;;;8.96;79.66
76201;BME280;64981;52.930;9.266;2023-12-29T04:10:58;100068.91;;;9.19;78.88
76201;BME280;64981;52.930;9.266;2023-12-29T04:13:24;100063.47;;;9.12;78.29
76201;BME280;64981;52.930;9.266;2023-12-29T04:15:49;100066.25;;;9.19;77.86
76201;BME280;64981;52.930;9.266;2023-12-29T04:18:15;100062.66;;;9.12;77.96
76201;BME280;64981;52.930;9.266;2023-12-29T04:20:41;100049.13;;;9.23;77.67
76201;BME280;64981;52.930;9.266;2023-12-29T04:23:07;100058.69;;;9.16;77.79
76201;BME280;64981;52.930;9.266;2023-12-29T04:25:33;100058.59;;;9.48;76.88
76201;BME280;64981;52.930;9.266;2023-12-29T04:27:59;100057.66;;;9.33;77.17
76201;BME280;64981;52.930;9.266;2023-12-29T04:30:25;100057.53;;;9.27;77.70
76201;BME280;64981;52.930;9.266;2023-12-29T04:32:50;100058.56;;;9.17;77.76
76201;BME280;64981;52.930;9.266;2023-12-29T04:35:16;100060.91;;;9.43;77.37
76201;BME280;64981;52.930;9.266;2023-12-29T04:37:44;100071.50;;;9.35;77.59
76201;BME280;64981;52.930;9.266;2023-12-29T04:40:12;100072.63;;;9.41;78.17
76201;BME280;64981;52.930;9.266;2023-12-29T04:42:37;100070.94;;;9.48;78.98
76201;BME280;64981;52.930;9.266;2023-12-29T04:45:04;100051.66;;;9.47;79.33
76201;BME280;64981;52.930;9.266;2023-12-29T04:47:30;100054.56;;;9.30;79.68
76201;BME280;64981;52.930;9.266;2023-12-29T04:49:56;100053.56;;;9.31;79.62
76201;BME280;64981;52.930;9.266;2023-12-29T04:52:21;100049.81;;;9.17;80.46
76201;BME280;64981;52.930;9.266;2023-12-29T04:54:47;100054.66;;;9.44;78.81
76201;BME280;64981;52.930;9.266;2023-12-29T04:57:13;100037.78;;;9.22;79.59
76201;BME280;64981;52.930;9.266;2023-12-29T04:59:39;100052.94;;;9.12;80.09
76201;BME280;64981;52.930;9.266;2023-12-29T05:02:05;100069.63;;;9.05;80.07
76201;BME280;64981;52.930;9.266;2023-12-29T05:04:30;100057.19;;;9.30;79.26
76201;BME280;64981;52.930;9.266;2023-12-29T05:06:56;100066.94;;;9.13;79.36
76201;BME280;64981;52.930;9.266;2023-12-29T05:09:21;100059.56;;;9.08;79.40
76201;BME280;64981;52.930;9.266;2023-12-29T05:11:47;100064.00;;;9.08;79.30
76201;BME280;64981;52.930;9.266;2023-12-29T05:14:13;100061.53;;;9.06;79.34
76201;BME280;64981;52.930;9.266;2023-12-29T05:16:39;100083.38;;;9.23;78.80
76201;BME280;64981;52.930;9.266;2023-12-29T05:19:04;100078.16;;;9.54;77.94
76201;BME280;64981;52.930;9.266;2023-12-29T05:21:30;100077.28;;;9.31;78.10
76201;BME280;64981;52.930;9.266;2023-12-29T05:23:56;100076.75;;;9.35;78.08
76201;BME280;64981;52.930;9.266;2023-12-29T05:26:22;100073.28;;;9.35;78.03
76201;BME280;64981;52.930;9.266;2023-12-29T05:28:47;100061.38;;;9.47;77.78
76201;BME280;64981;52.930;9.266;2023-12-29T05:31:13;100070.31;;;9.38;78.07
76201;BME280;64981;52.930;9.266;2023-12-29T05:33:38;100061.78;;;9.36;77.98
76201;BME280;64981;52.930;9.266;2023-12-29T05:36:06;100054.22;;;9.24;78.87
76201;BME280;64981;52.930;9.266;2023-12-29T05:38:33;100073.13;;;9.36;78.57
76201;BME280;64981;52.930;9.266;2023-12-29T05:41:01;100087.50;;;9.25;78.48
76201;BME280;64981;52.930;9.266;2023-12-29T05:43:28;100081.34;;;9.41;77.30
76201;BME280;64981;52.930;9.266;2023-12-29T05:45:53;100074.97;;;9.27;77.32
76201;BME280;64981;52.930;9.266;2023-12-29T05:48:19;100074.84;;;9.21;77.53
76201;BME280;64981;52.930;9.266;2023-12-29T05:50:44;100090.41;;;9.39;76.61
76201;BME280;64981;52.930;9.266;2023-12-29T05:53:10;100084.66;;;9.35;76.42
76201;BME280;64981;52.930;9.266;2023-12-29T05:55:35;100076.72;;;9.43;76.31
76201;BME280;64981;52.930;9.266;2023-12-29T05:58:01;100098.03;;;9.25;77.01
76201;BME280;64981;52.930;9.266;2023-12-29T06:00:27;100101.44;;;9.42;76.71
76201;BME280;64981;52.930;9.266;2023-12-29T06:02:53;100095.25;;;9.19;76.86
76201;BME280;64981;52.930;9.266;2023-12-29T06:05:18;100089.25;;;9.49;76.25
76201;BME280;64981;52.930;9.266;2023-12-29T06:07:44;100103.97;;;9.19;77.00
76201;BME280;64981;52.930;9.266;2023-12-29T06:10:09;100108.72;;;9.32;76.48
76201;BME280;64981;52.930;9.266;2023-12-29T06:12:35;100114.38;;;9.60;75.57
76201;BME280;64981;52.930;9.266;2023-12-29T06:15:01;100113.41;;;9.53;75.75
76201;BME280;64981;52.930;9.266;2023-12-29T06:17:27;100127.72;;;9.66;75.13
76201;BME280;64981;52.930;9.266;2023-12-29T06:19:52;100107.22;;;9.38;76.25
76201;BME280;64981;52.930;9.266;2023-12-29T06:22:18;100130.06;;;9.53;75.64
76201;BME280;64981;52.930;9.266;2023-12-29T06:24:44;100135.66;;;9.58;75.58
76201;BME280;64981;52.930;9.266;2023-12-29T06:27:11;100116.88;;;9.61;75.64
76201;BME280;64981;52.930;9.266;2023-12-29T06:29:37;100104.72;;;9.44;76.24
76201;BME280;64981;52.930;9.266;2023-12-29T06:32:04;100117.28;;;9.34;76.15
76201;BME280;64981;52.930;9.266;2023-12-29T06:34:30;100120.78;;;9.27;75.98
76201;BME280;64981;52.930;9.266;2023-12-29T06:36:55;100117.41;;;9.41;75.67
76201;BME280;64981;52.930;9.266;2023-12-29T06:39:21;100132.59;;;9.39;75.87
76201;BME280;64981;52.930;9.266;2023-12-29T06:41:46;100128.81;;;9.33;75.86
76201;BME280;64981;52.930;9.266;2023-12-29T06:44:12;100131.81;;;9.22;75.94
76201;BME280;64981;52.930;9.266;2023-12-29T06:46:38;100118.25;;;9.49;75.04
76201;BME280;64981;52.930;9.266;2023-12-29T06:49:03;100131.94;;;9.37;74.76
76201;BME280;64981;52.930;9.266;2023-12-29T06:51:29;100128.25;;;9.62;74.04
76201;BME280;64981;52.930;9.266;2023-12-29T06:53:55;100122.88;;;9.39;74.80
76201;BME280;64981;52.930;9.266;2023-12-29T06:56:20;100130.09;;;9.37;74.94
76201;BME280;64981;52.930;9.266;2023-12-29T06:58:46;100129.09;;;9.54;74.65
76201;BME280;64981;52.930;9.266;2023-12-29T07:01:12;100124.50;;;9.48;74.31
76201;BME280;64981;52.930;9.266;2023-12-29T07:03:38;100139.00;;;9.52;74.71
76201;BME280;64981;52.930;9.266;2023-12-29T07:06:04;100123.41;;;9.27;75.20
76201;BME280;64981;52.930;9.266;2023-12-29T07:08:29;100133.09;;;9.42;74.80
76201;BME280;64981;52.930;9.266;2023-12-29T07:10:55;100137.81;;;9.47;74.76
76201;BME280;64981;52.930;9.266;2023-12-29T07:13:20;100132.41;;;9.40;74.48
76201;BME280;64981;52.930;9.266;2023-12-29T07:15:47;100142.06;;;9.56;74.35
76201;BME280;64981;52.930;9.266;2023-12-29T07:18:14;100129.38;;;9.59;74.23
76201;BME280;64981;52.930;9.266;2023-12-29T07:20:40;100119.75;;;9.27;74.65
76201;BME280;64981;52.930;9.266;2023-12-29T07:23:05;100136.69;;;9.41;74.61
76201;BME280;64981;52.930;9.266;2023-12-29T07:25:31;100124.50;;;9.48;73.82
76201;BME280;64981;52.930;9.266;2023-12-29T07:27:57;100131.19;;;9.59;73.87
76201;BME280;64981;52.930;9.266;2023-12-29T07:30:22;100123.19;;;9.44;73.97
76201;BME280;64981;52.930;9.266;2023-12-29T07:32:48;100127.56;;;9.68;73.05
76201;BME280;64981;52.930;9.266;2023-12-29T07:35:14;100143.28;;;9.84;72.02
76201;BME280;64981;52.930;9.266;2023-12-29T07:37:44;100126.25;;;9.56;72.61
76201;BME280;64981;52.930;9.266;2023-12-29T07:40:11;100125.13;;;9.50;72.15
76201;BME280;64981;52.930;9.266;2023-12-29T07:42:38;100126.19;;;9.33;72.50
76201;BME280;64981;52.930;9.266;2023-12-29T07:45:04;100143.31;;;9.29;72.58
76201;BME280;64981;52.930;9.266;2023-12-29T07:47:31;100142.94;;;9.48;72.23
76201;BME280;64981;52.930;9.266;2023-12-29T07:49:57;100137.22;;;9.37;72.30
76201;BME280;64981;52.930;9.266;2023-12-29T07:52:22;100140.84;;;9.27;71.78
76201;BME280;64981;52.930;9.266;2023-12-29T07:54:48;100135.63;;;9.11;72.42
76201;BME280;64981;52.930;9.266;2023-12-29T07:57:14;100142.50;;;9.29;71.99
76201;BME280;64981;52.930;9.266;2023-12-29T07:59:40;100144.78;;;9.32;71.68
76201;BME280;64981;52.930;9.266;2023-12-29T08:02:06;100145.13;;;9.37;71.49
76201;BME280;64981;52.930;9.266;2023-12-29T08:04:32;100139.03;;;9.28;72.34
76201;BME280;64981;52.930;9.266;2023-12-29T08:06:57;100141.19;;;9.24;72.98
76201;BME280;64981;52.930;9.266;2023-12-29T08:09:23;100150.84;;;9.40;73.22
76201;BME280;64981;52.930;9.266;2023-12-29T08:11:49;100144.47;;;9.27;73.21
76201;BME280;64981;52.930;9.266;2023-12-29T08:14:15;100151.91;;;9.07;74.69
76201;BME280;64981;52.930;9.266;2023-12-29T08:16:41;100153.38;;;9.09;75.20
76201;BME280;64981;52.930;9.266;2023-12-29T08:19:07;100144.03;;;9.07;75.16
76201;BME280;64981;52.930;9.266;2023-12-29T08:21:33;100156.00;;;9.34;74.69
76201;BME280;64981;52.930;9.266;2023-12-29T08:23:59;100151.94;;;9.15;75.43
76201;BME280;64981;52.930;9.266;2023-12-29T08:26:25;100145.50;;;9.17;75.91
76201;BME280;64981;52.930;9.266;2023-12-29T08:28:51;100149.59;;;9.20;76.17
76201;BME280;64981;52.930;9.266;2023-12-29T08:31:18;100139.56;;;9.23;75.94
76201;BME280;64981;52.930;9.266;2023-12-29T08:33:44;100134.09;;;9.25;75.65
76201;BME280;64981;52.930;9.266;2023-12-29T08:36:12;100140.19;;;9.25;76.46
76201;BME280;64981;52.930;9.266;2023-12-29T08:38:38;100128.03;;;9.16;76.65
76201;BME280;64981;52.930;9.266;2023-12-29T08:41:04;100152.22;;;9.28;76.52
76201;BME280;64981;52.930;9.266;2023-12-29T08:43:30;100146.56;;;9.47;75.89
76201;BME280;64981;52.930;9.266;2023-12-29T08:45:56;100144.31;;;9.28;76.79
76201;BME280;64981;52.930;9.266;2023-12-29T08:48:22;100142.53;;;9.20;76.90
76201;BME280;64981;52.930;9.266;2023-12-29T08:50:49;100137.06;;;9.22;77.06
76201;BME280;64981;52.930;9.266;2023-12-29T08:53:14;100128.78;;;9.41;76.15
76201;BME280;64981;52.930;9.266;2023-12-29T08:55:41;100128.00;;;9.24;77.27
76201;BME280;64981;52.930;9.266;2023-12-29T08:58:07;100114.66;;;9.26;76.69
76201;BME280;64981;52.930;9.266;2023-12-29T09:00:32;100107.63;;;9.10;77.27
76201;BME280;64981;52.930;9.266;2023-12-29T09:02:59;100098.56;;;9.21;76.73
76201;BME280;64981;52.930;9.266;2023-12-29T09:05:25;100086.72;;;9.09;77.13
76201;BME280;64981;52.930;9.266;2023-12-29T09:07:50;100094.31;;;9.04;76.98
76201;BME280;64981;52.930;9.266;2023-12-29T09:10:16;100091.00;;;9.18;76.41
76201;BME280;64981;52.930;9.266;2023-12-29T09:12:43;100081.81;;;8.98;76.83
76201;BME280;64981;52.930;9.266;2023-12-29T09:15:09;100081.91;;;9.20;75.65
76201;BME280;64981;52.930;9.266;2023-12-29T09:17:35;100092.28;;;9.30;75.30
76201;BME280;64981;52.930;9.266;2023-12-29T09:20:01;100083.38;;;9.23;74.84
76201;BME280;64981;52.930;9.266;2023-12-29T09:22:26;100065.34;;;9.51;73.62
76201;BME280;64981;52.930;9.266;2023-12-29T09:24:54;100065.78;;;9.23;74.34
76201;BME280;64981;52.930;9.266;2023-12-29T09:27:20;100093.50;;;9.50;73.23
76201;BME280;64981;52.930;9.266;2023-12-29T09:29:45;100094.72;;;9.32;73.88
76201;BME280;64981;52.930;9.266;2023-12-29T09:32:11;100094.75;;;9.15;74.70
76201;BME280;64981;52.930;9.266;2023-12-29T09:34:36;100088.63;;;9.31;74.20
76201;BME280;64981;52.930;9.266;2023-12-29T09:37:02;100114.19;;;9.22;74.30
76201;BME280;64981;52.930;9.266;2023-12-29T09:39:27;100112.34;;;9.39;74.03
76201;BME280;64981;52.930;9.266;2023-12-29T09:41:58;100130.97;;;9.30;74.29
76201;BME280;64981;52.930;9.266;2023-12-29T09:44:27;100139.06;;;9.20;76.56
76201;BME280;64981;52.930;9.266;2023-12-29T09:46:54;100151.94;;;9.15;78.59
76201;BME280;64981;52.930;9.266;2023-12-29T09:49:21;100157.53;;;9.04;80.66
76201;BME280;64981;52.930;9.266;2023-12-29T09:51:47;100157.69;;;8.94;81.01
76201;BME280;64981;52.930;9.266;2023-12-29T09:54:14;100156.53;;;9.05;81.49
76201;BME280;64981;52.930;9.266;2023-12-29T09:56:41;100145.84;;;9.14;81.24
76201;BME280;64981;52.930;9.266;2023-12-29T09:59:10;100168.41;;;8.85;82.80
76201;BME280;64981;52.930;9.266;2023-12-29T10:01:37;100182.88;;;8.97;81.94
76201;BME280;64981;52.930;9.266;2023-12-29T10:04:04;100171.50;;;8.96;81.95
76201;BME280;64981;52.930;9.266;2023-12-29T10:06:36;100177.13;;;8.77;83.11
76201;BME280;64981;52.930;9.266;2023-12-29T10:09:03;100176.25;;;8.60;84.27
76201;BME280;64981;52.930;9.266;2023-12-29T10:11:35;100158.66;;;8.61;84.20
76201;BME280;64981;52.930;9.266;2023-12-29T10:14:06;100129.22;;;8.65;81.91
76201;BME280;64981;52.930;9.266;2023-12-29T10:16:41;100136.47;;;8.63;82.64
76201;BME280;64981;52.930;9.266;2023-12-29T10:19:27;100140.06;;;8.62;81.86
76201;BME280;64981;52.930;9.266;2023-12-29T10:22:03;100147.28;;;8.44;80.57
76201;BME280;64981;52.930;9.266;2023-12-29T10:24:33;100150.88;;;8.43;82.00
76201;BME280;64981;52.930;9.266;2023-12-29T10:27:00;100150.41;;;8.56;81.59
76201;BME280;64981;52.930;9.266;2023-12-29T10:29:27;100151.09;;;8.58;81.30
76201;BME280;64981;52.930;9.266;2023-12-29T10:31:53;100140.75;;;8.64;81.34
76201;BME280;64981;52.930;9.266;2023-12-29T10:34:26;100144.84;;;8.75;80.95
76201;BME280;64981;52.930;9.266;2023-12-29T10:36:55;100135.31;;;8.82;80.71
76201;BME280;64981;52.930;9.266;2023-12-29T10:39:21;100141.22;;;9.00;79.12
76201;BME280;64981;52.930;9.266;2023-12-29T10:41:46;100140.41;;;9.08;78.58
76201;BME280;64981;52.930;9.266;2023-12-29T10:44:12;100132.69;;;8.98;79.04
76201;BME280;64981;52.930;9.266;2023-12-29T10:46:38;100135.78;;;9.10;79.59
76201;BME280;64981;52.930;9.266;2023-12-29T10:49:10;100128.06;;;9.00;79.65
76201;BME280;64981;52.930;9.266;2023-12-29T10:51:36;100119.94;;;9.26;78.40
76201;BME280;64981;52.930;9.266;2023-12-29T10:54:03;100113.16;;;9.32;79.27
76201;BME280;64981;52.930;9.266;2023-12-29T10:56:31;100112.53;;;9.21;78.54
76201;BME280;64981;52.930;9.266;2023-12-29T10:58:58;100107.56;;;9.43;78.78
76201;BME280;64981;52.930;9.266;2023-12-29T11:01:25;100106.09;;;9.32;78.07
76201;BME280;64981;52.930;9.266;2023-12-29T11:04:00;100110.00;;;9.44;78.25
76201;BME280;64981;52.930;9.266;2023-12-29T11:06:27;100101.06;;;9.61;77.36
76201;BME280;64981;52.930;9.266;2023-12-29T11:08:53;100088.78;;;9.38;76.81
76201;BME280;64981;52.930;9.266;2023-12-29T11:11:19;100091.09;;;9.71;76.80
76201;BME280;64981;52.930;9.266;2023-12-29T11:13:47;100087.78;;;9.77;75.57
76201;BME280;64981;52.930;9.266;2023-12-29T11:16:14;100088.72;;;9.85;76.11
76201;BME280;64981;52.930;9.266;2023-12-29T11:18:43;100104.38;;;9.47;76.32
76201;BME280;64981;52.930;9.266;2023-12-29T11:21:10;100099.69;;;9.73;76.40
76201;BME280;64981;52.930;9.266;2023-12-29T11:23:36;100110.25;;;9.65;76.09
76201;BME280;64981;52.930;9.266;2023-12-29T11:26:03;100108.28;;;9.67;75.77
76201;BME280;64981;52.930;9.266;2023-12-29T11:28:29;100117.31;;;9.73;75.75
76201;BME280;64981;52.930;9.266;2023-12-29T11:30:54;100111.41;;;9.63;75.36
76201;BME280;64981;52.930;9.266;2023-12-29T11:33:26;100121.13;;;9.62;75.59
76201;BME280;64981;52.930;9.266;2023-12-29T11:36:14;100105.44;;;9.69;74.63
76201;BME280;64981;52.930;9.266;2023-12-29T11:41:44;100093.28;;;9.68;75.44
76201;BME280;64981;52.930;9.266;2023-12-29T11:44:12;100099.69;;;9.73;73.49
76201;BME280;64981;52.930;9.266;2023-12-29T11:46:49;100116.19;;;9.67;72.77
76201;BME280;64981;52.930;9.266;2023-12-29T11:49:15;100099.28;;;9.85;73.14
76201;BME280;64981;52.930;9.266;2023-12-29T11:51:42;100100.44;;;9.82;73.74
76201;BME280;64981;52.930;9.266;2023-12-29T11:54:09;100112.66;;;9.75;74.03
76201;BME280;64981;52.930;9.266;2023-12-29T11:56:37;100129.75;;;9.48;74.00
76201;BME280;64981;52.930;9.266;2023-12-29T11:59:14;100127.63;;;9.52;73.69
76201;BME280;64981;52.930;9.266;2023-12-29T12:01:39;100142.31;;;9.38;74.86
76201;BME280;64981;52.930;9.266;2023-12-29T12:07:03;100164.13;;;8.67;78.25
76201;BME280;64981;52.930;9.266;2023-12-29T12:09:29;100153.38;;;8.53;78.18
76201;BME280;64981;52.930;9.266;2023-12-29T12:11:55;100136.47;;;8.80;77.10
76201;BME280;64981;52.930;9.266;2023-12-29T12:17:08;100127.53;;;8.32;79.25
76201;BME280;64981;52.930;9.266;2023-12-29T12:19:33;100146.75;;;8.16;79.34
76201;BME280;64981;52.930;9.266;2023-12-29T12:22:01;100146.75;;;8.16;79.56
76201;BME280;64981;52.930;9.266;2023-12-29T12:24:28;100131.97;;;8.24;79.31
76201;BME280;64981;52.930;9.266;2023-12-29T12:26:54;100128.59;;;7.97;80.30
76201;BME280;64981;52.930;9.266;2023-12-29T12:29:20;100118.28;;;8.12;80.09
76201;BME280;64981;52.930;9.266;2023-12-29T12:31:55;100137.66;;;7.95;80.69
76201;BME280;64981;52.930;9.266;2023-12-29T12:34:20;100112.13;;;7.79;81.08
76201;BME280;64981;52.930;9.266;2023-12-29T12:36:50;100120.00;;;7.79;80.71
76201;BME280;64981;52.930;9.266;2023-12-29T12:39:15;100118.53;;;7.77;80.73
76201;BME280;64981;52.930;9.266;2023-12-29T12:41:41;100126.63;;;7.91;79.98
76201;BME280;64981;52.930;9.266;2023-12-29T12:44:12;100128.88;;;7.78;81.10
76201;BME280;64981;52.930;9.266;2023-12-29T12:46:48;100136.75;;;7.78;81.47
76201;BME280;64981;52.930;9.266;2023-12-29T12:49:15;100121.34;;;7.91;80.55
76201;BME280;64981;52.930;9.266;2023-12-29T12:51:42;100107.69;;;7.88;80.76
76201;BME280;64981;52.930;9.266;2023-12-29T12:54:10;100123.00;;;7.92;81.15
76201;BME280;64981;52.930;9.266;2023-12-29T12:56:36;100127.41;;;7.84;81.43
76201;BME280;64981;52.930;9.266;2023-12-29T12:59:03;100117.25;;;7.97;81.44
76201;BME280;64981;52.930;9.266;2023-12-29T13:01:34;100115.16;;;8.08;81.05
76201;BME280;64981;52.930;9.266;2023-12-29T13:04:03;100115.19;;;8.25;80.75
76201;BME280;64981;52.930;9.266;2023-12-29T13:06:31;100118.81;;;8.32;80.24